createdAt,value
2023-05-24T00:01:28.886Z,99540.81
2023-05-24T00:04:02.055Z,99553.78
2023-05-24T00:06:36.220Z,99552.31
2023-05-24T00:09:09.151Z,99546.59
2023-05-24T00:11:39.422Z,99544.78
2023-05-24T00:14:09.410Z,99537.31
2023-05-24T00:16:39.850Z,99532.97
2023-05-24T00:19:18.900Z,99525.31
2023-05-24T00:21:50.483Z,99525.06
2023-05-24T00:24:20.993Z,99522.00
2023-05-24T00:26:51.434Z,99522.81
2023-05-24T00:29:21.705Z,99530.22
2023-05-24T00:31:53.704Z,99527.34
2023-05-24T00:34:29.352Z,99530.66
2023-05-24T00:37:00.911Z,99526.97
2023-05-24T00:39:33.510Z,99529.47
2023-05-24T00:42:03.859Z,99526.63
2023-05-24T00:44:36.867Z,99520.81
2023-05-24T00:47:07.618Z,99518.72
2023-05-24T00:49:40.602Z,99520.34
2023-05-24T00:52:17.532Z,99515.84
2023-05-24T00:54:47.942Z,99519.97
2023-05-24T00:57:19.168Z,99511.13
2023-05-24T00:59:49.833Z,99516.66
2023-05-24T01:02:20.973Z,99520.63
2023-05-24T01:04:56.492Z,99523.66
2023-05-24T01:07:38.107Z,99507.47
2023-05-24T01:10:17.564Z,99512.16
2023-05-24T01:12:59.337Z,99514.19
2023-05-24T01:15:46.171Z,99520.91
2023-05-24T01:18:26.372Z,99517.22
2023-05-24T01:21:24.037Z,99514.38
2023-05-24T01:24:07.741Z,99512.16
2023-05-24T01:26:43.108Z,99514.63
2023-05-24T01:29:17.022Z,99509.47
2023-05-24T01:31:50.699Z,99501.88
2023-05-24T01:34:21.058Z,99508.03
2023-05-24T01:36:54.008Z,99514.19
2023-05-24T01:39:25.172Z,99505.78
2023-05-24T01:42:10.717Z,99501.03
2023-05-24T01:44:50.833Z,99495.69
2023-05-24T01:47:31.805Z,99497.34
2023-05-24T01:50:10.261Z,99500.38
2023-05-24T01:52:47.086Z,99505.25
2023-05-24T01:55:20.300Z,99493.38
2023-05-24T01:57:53.626Z,99493.75
2023-05-24T02:00:26.961Z,99496.78
2023-05-24T02:03:02.489Z,99496.66
2023-05-24T02:05:34.958Z,99494.19
2023-05-24T02:08:06.280Z,99500.06
2023-05-24T02:10:38.840Z,99488.31
2023-05-24T02:13:12.182Z,99497.50
2023-05-24T02:15:46.818Z,99494.66
2023-05-24T02:18:18.896Z,99491.97
2023-05-24T02:20:49.187Z,99493.47
2023-05-24T02:23:23.427Z,99488.31
2023-05-24T02:25:53.702Z,99494.28
2023-05-24T02:28:23.685Z,99496.97
2023-05-24T02:30:57.808Z,99485.28
2023-05-24T02:33:31.096Z,99494.66
2023-05-24T02:36:01.492Z,99495.47
2023-05-24T02:38:33.447Z,99499.81
2023-05-24T02:41:03.737Z,99493.81
2023-05-24T02:43:33.644Z,99495.66
2023-05-24T02:46:06.637Z,99488.47
2023-05-24T02:48:37.063Z,99489.03
2023-05-24T02:51:07.398Z,99494.72
2023-05-24T02:53:37.741Z,99500.41
2023-05-24T02:56:08.964Z,99491.41
2023-05-24T02:58:40.826Z,99495.06
2023-05-24T03:01:13.862Z,99491.75
2023-05-24T03:03:47.143Z,99499.94
2023-05-24T03:06:17.758Z,99507.78
2023-05-24T03:08:51.333Z,99505.94
2023-05-24T03:11:24.279Z,99505.94
2023-05-24T03:13:55.149Z,99505.63
2023-05-24T03:16:28.389Z,99512.63
2023-05-24T03:19:00.256Z,99507.69
2023-05-24T03:21:33.232Z,99505.94
2023-05-24T03:24:06.819Z,99513.56
2023-05-24T03:26:37.109Z,99511.56
2023-05-24T03:29:09.675Z,99510.38
2023-05-24T03:31:42.627Z,99514.16
2023-05-24T03:34:13.578Z,99513.88
2023-05-24T03:36:43.797Z,99510.13
2023-05-24T03:39:14.009Z,99517.50
2023-05-24T03:41:44.454Z,99513.38
2023-05-24T03:44:14.720Z,99510.88
2023-05-24T03:46:47.239Z,99504.69
2023-05-24T03:49:18.665Z,99501.19
2023-05-24T03:51:48.980Z,99503.50
2023-05-24T03:54:19.843Z,99510.50
2023-05-24T03:56:50.378Z,99514.34
2023-05-24T03:59:20.854Z,99509.69
2023-05-24T04:01:53.732Z,99517.81
2023-05-24T04:04:24.976Z,99519.91
2023-05-24T04:06:58.631Z,99523.31
2023-05-24T04:09:28.953Z,99523.06
2023-05-24T04:12:08.501Z,99524.25
2023-05-24T04:14:38.799Z,99535.88
2023-05-24T04:17:12.698Z,99534.91
2023-05-24T04:19:43.026Z,99536.97
2023-05-24T04:22:16.108Z,99537.25
2023-05-24T04:24:46.662Z,99538.06
2023-05-24T04:27:18.247Z,99537.75
2023-05-24T04:29:54.717Z,99532.53
2023-05-24T04:32:30.648Z,99535.78
2023-05-24T04:35:02.877Z,99533.34
2023-05-24T04:37:33.487Z,99531.78
2023-05-24T04:40:04.522Z,99540.22
2023-05-24T04:42:34.799Z,99543.09
2023-05-24T04:45:04.953Z,99543.22
2023-05-24T04:47:37.879Z,99537.22
2023-05-24T04:50:09.338Z,99539.50
2023-05-24T04:52:39.738Z,99545.75
2023-05-24T04:55:11.002Z,99545.19
2023-05-24T04:57:41.353Z,99544.66
2023-05-24T05:00:14.205Z,99552.56
2023-05-24T05:02:47.272Z,99551.88
2023-05-24T05:05:17.969Z,99546.56
2023-05-24T05:07:48.318Z,99552.63
2023-05-24T05:10:23.658Z,99551.59
2023-05-24T05:12:54.151Z,99545.31
2023-05-24T05:15:25.969Z,99551.97
2023-05-24T05:17:58.862Z,99552.56
2023-05-24T05:20:29.259Z,99561.59
2023-05-24T05:23:02.203Z,99561.19
2023-05-24T05:25:32.614Z,99564.53
2023-05-24T05:28:03.006Z,99559.09
2023-05-24T05:30:33.233Z,99564.63
2023-05-24T05:33:06.439Z,99560.78
2023-05-24T05:35:36.746Z,99559.91
2023-05-24T05:38:07.418Z,99567.78
2023-05-24T05:40:37.900Z,99575.41
2023-05-24T05:43:08.737Z,99570.41
2023-05-24T05:45:39.000Z,99579.06
2023-05-24T05:48:12.787Z,99580.03
2023-05-24T05:50:43.330Z,99575.22
2023-05-24T05:53:18.426Z,99579.63
2023-05-24T05:55:48.938Z,99585.34
2023-05-24T05:58:19.243Z,99570.75
2023-05-24T06:00:49.512Z,99583.38
2023-05-24T06:03:25.547Z,99587.75
2023-05-24T06:05:56.205Z,99587.94
2023-05-24T06:08:26.607Z,99590.88
2023-05-24T06:10:56.813Z,99597.09
2023-05-24T06:13:28.713Z,99609.31
2023-05-24T06:15:59.151Z,99615.31
2023-05-24T06:18:34.893Z,99610.56
2023-05-24T06:21:05.214Z,99610.56
2023-05-24T06:23:35.557Z,99610.97
2023-05-24T06:26:06.038Z,99619.41
2023-05-24T06:28:36.469Z,99619.81
2023-05-24T06:31:09.071Z,99620.03
2023-05-24T06:33:52.486Z,99622.94
2023-05-24T06:36:26.633Z,99635.13
2023-05-24T06:38:59.284Z,99627.47
2023-05-24T06:41:30.176Z,99635.31
2023-05-24T06:44:00.453Z,99640.84
2023-05-24T06:46:30.765Z,99629.44
2023-05-24T06:49:07.443Z,99632.47
2023-05-24T06:51:38.389Z,99633.69
2023-05-24T06:54:11.433Z,99639.66
2023-05-24T06:56:41.754Z,99640.66
2023-05-24T06:59:11.996Z,99649.28
2023-05-24T07:01:43.733Z,99647.59
2023-05-24T07:04:16.765Z,99639.72
2023-05-24T07:06:47.089Z,99653.34
2023-05-24T07:09:17.537Z,99649.22
2023-05-24T07:11:48.024Z,99652.81
2023-05-24T07:14:19.789Z,99656.13
2023-05-24T07:16:52.506Z,99650.78
2023-05-24T07:19:29.401Z,99650.50
2023-05-24T07:22:00.128Z,99660.41
2023-05-24T07:24:30.863Z,99660.56
2023-05-24T07:27:01.219Z,99655.34
2023-05-24T07:29:31.733Z,99646.22
2023-05-24T07:32:02.126Z,99661.44
2023-05-24T07:34:35.235Z,99663.25
2023-05-24T07:37:08.502Z,99665.56
2023-05-24T07:39:39.218Z,99656.91
2023-05-24T07:42:09.729Z,99664.16
2023-05-24T07:44:40.801Z,99655.47
2023-05-24T07:47:12.137Z,99659.22
2023-05-24T07:49:45.354Z,99662.63
2023-05-24T07:52:15.602Z,99658.56
2023-05-24T07:54:45.860Z,99664.06
2023-05-24T07:57:16.116Z,99662.66
2023-05-24T07:59:46.378Z,99664.09
2023-05-24T08:02:17.272Z,99668.22
2023-05-24T08:04:50.214Z,99663.44
2023-05-24T08:07:21.612Z,99672.91
2023-05-24T08:09:52.028Z,99671.25
2023-05-24T08:12:22.281Z,99671.41
2023-05-24T08:14:52.678Z,99678.06
2023-05-24T08:17:22.931Z,99678.88
2023-05-24T08:19:56.489Z,99678.63
2023-05-24T08:22:26.850Z,99678.78
2023-05-24T08:24:57.630Z,99678.66
2023-05-24T08:27:29.076Z,99677.94
2023-05-24T08:29:59.445Z,99684.53
2023-05-24T08:32:29.816Z,99677.63
2023-05-24T08:35:14.953Z,99678.88
2023-05-24T08:37:50.013Z,99683.56
2023-05-24T08:40:20.661Z,99682.88
2023-05-24T08:42:52.874Z,99684.34
2023-05-24T08:45:25.067Z,99687.72
2023-05-24T08:47:55.869Z,99689.28
2023-05-24T08:50:34.931Z,99687.53
2023-05-24T08:53:05.675Z,99687.78
2023-05-24T08:55:38.968Z,99698.13
2023-05-24T08:58:09.920Z,99702.66
2023-05-24T09:00:41.348Z,99700.44
2023-05-24T09:03:13.304Z,99705.13
2023-05-24T09:05:47.243Z,99706.28
2023-05-24T09:08:20.963Z,99711.78
2023-05-24T09:10:55.341Z,99713.94
2023-05-24T09:13:27.260Z,99705.22
2023-05-24T09:15:57.614Z,99711.84
2023-05-24T09:18:27.917Z,99708.53
2023-05-24T09:21:00.898Z,99703.09
2023-05-24T09:23:31.658Z,99699.56
2023-05-24T09:26:09.935Z,99705.34
2023-05-24T09:28:42.042Z,99709.59
2023-05-24T09:31:12.647Z,99720.13
2023-05-24T09:33:43.573Z,99713.56
2023-05-24T09:36:20.556Z,99716.00
2023-05-24T09:38:51.976Z,99713.88
2023-05-24T09:41:26.214Z,99712.38
2023-05-24T09:43:56.643Z,99714.78
2023-05-24T09:46:27.414Z,99715.94
2023-05-24T09:49:03.752Z,99714.31
2023-05-24T09:51:39.882Z,99715.00
2023-05-24T09:54:09.966Z,99717.38
2023-05-24T09:56:43.361Z,99715.72
2023-05-24T09:59:14.275Z,99723.47
2023-05-24T10:01:44.915Z,99723.16
2023-05-24T10:04:15.736Z,99727.91
2023-05-24T10:06:50.437Z,99731.88
2023-05-24T10:09:20.932Z,99735.47
2023-05-24T10:11:51.952Z,99725.09
2023-05-24T10:14:22.963Z,99732.41
2023-05-24T10:16:53.427Z,99735.59
2023-05-24T10:19:24.446Z,99737.47
2023-05-24T10:21:59.421Z,99741.25
2023-05-24T10:24:43.025Z,99742.91
2023-05-24T10:27:18.616Z,99741.66
2023-05-24T10:30:00.113Z,99745.31
2023-05-24T10:32:33.509Z,99739.66
2023-05-24T10:35:04.106Z,99741.81
2023-05-24T10:37:37.384Z,99747.97
2023-05-24T10:40:10.284Z,99750.47
2023-05-24T10:42:42.808Z,99752.38
2023-05-24T10:45:37.524Z,99759.66
2023-05-24T10:48:36.450Z,99761.91
2023-05-24T10:51:36.878Z,99763.97
2023-05-24T10:54:21.774Z,99765.19
2023-05-24T10:56:53.795Z,99753.78
2023-05-24T10:59:44.623Z,99756.84
2023-05-24T11:02:16.870Z,99767.22
2023-05-24T11:04:50.707Z,99765.78
2023-05-24T11:07:22.275Z,99769.72
2023-05-24T11:10:02.885Z,99760.34
2023-05-24T11:12:38.867Z,99764.63
2023-05-24T11:15:12.752Z,99752.81
2023-05-24T11:18:12.953Z,99750.78
2023-05-24T11:20:45.427Z,99753.91
2023-05-24T11:23:18.401Z,99744.94
2023-05-24T11:25:52.731Z,99752.88
2023-05-24T11:28:24.024Z,99747.06
2023-05-24T11:30:54.480Z,99749.50
2023-05-24T11:33:27.464Z,99750.19
2023-05-24T11:35:58.423Z,99752.56
2023-05-24T11:38:30.766Z,99750.53
2023-05-24T11:41:04.534Z,99753.84
2023-05-24T11:43:34.875Z,99747.63
2023-05-24T11:46:05.650Z,99742.69
2023-05-24T11:48:36.333Z,99741.25
2023-05-24T11:51:08.406Z,99733.41
2023-05-24T11:53:41.572Z,99733.78
2023-05-24T11:56:14.491Z,99728.56
2023-05-24T11:58:51.984Z,99727.34
2023-05-24T12:01:29.702Z,99737.59
2023-05-24T12:04:02.243Z,99735.19
2023-05-24T12:06:38.508Z,99728.16
2023-05-24T12:09:13.465Z,99727.28
2023-05-24T12:11:51.039Z,99727.78
2023-05-24T12:14:22.985Z,99724.88
2023-05-24T12:16:53.646Z,99722.34
2023-05-24T12:19:32.920Z,99723.53
2023-05-24T12:22:05.341Z,99724.41
2023-05-24T12:24:35.999Z,99720.09
2023-05-24T12:27:10.345Z,99724.38
2023-05-24T12:29:43.703Z,99718.88
2023-05-24T12:32:15.651Z,99717.91
2023-05-24T12:34:47.956Z,99717.94
2023-05-24T12:37:18.818Z,99719.06
2023-05-24T12:39:49.102Z,99714.94
2023-05-24T12:42:27.150Z,99707.22
2023-05-24T12:44:57.619Z,99705.00
2023-05-24T12:47:28.002Z,99699.94
2023-05-24T12:49:58.734Z,99694.28
2023-05-24T12:52:34.292Z,99687.66
2023-05-24T12:55:04.674Z,99692.03
2023-05-24T12:57:37.897Z,99697.09
2023-05-24T13:00:11.115Z,99697.94
2023-05-24T13:02:43.396Z,99697.31
2023-05-24T13:05:14.029Z,99685.41
2023-05-24T13:07:47.854Z,99687.91
2023-05-24T13:10:18.210Z,99685.22
2023-05-24T13:12:51.188Z,99684.63
2023-05-24T13:15:24.334Z,99683.56
2023-05-24T13:17:55.023Z,99687.06
2023-05-24T13:20:25.517Z,99685.41
2023-05-24T13:22:55.833Z,99685.53
2023-05-24T13:25:26.987Z,99689.06
2023-05-24T13:28:00.269Z,99685.25
2023-05-24T13:30:30.646Z,99686.81
2023-05-24T13:33:01.631Z,99685.09
2023-05-24T13:35:33.218Z,99682.00
2023-05-24T13:38:06.272Z,99680.28
2023-05-24T13:40:38.332Z,99683.09
2023-05-24T13:43:13.056Z,99685.91
2023-05-24T13:45:43.396Z,99686.84
2023-05-24T13:48:14.078Z,99690.13
2023-05-24T13:50:45.192Z,99678.56
2023-05-24T13:53:15.754Z,99688.19
2023-05-24T13:55:46.046Z,99681.75
2023-05-24T13:58:21.613Z,99682.16
2023-05-24T14:00:54.748Z,99676.63
2023-05-24T14:03:27.165Z,99675.47
2023-05-24T14:05:57.578Z,99677.09
2023-05-24T14:08:27.952Z,99672.56
2023-05-24T14:10:58.352Z,99673.03
2023-05-24T14:14:32.895Z,99670.28
2023-05-24T14:16:22.178Z,99674.34
2023-05-24T14:18:53.006Z,99680.78
2023-05-24T14:21:27.590Z,99676.44
2023-05-24T14:23:58.182Z,99675.75
2023-05-24T14:26:28.864Z,99683.06
2023-05-24T14:29:01.922Z,99684.34
2023-05-24T14:31:35.879Z,99678.56
2023-05-24T14:34:06.275Z,99678.91
2023-05-24T14:36:36.846Z,99678.91
2023-05-24T14:39:07.534Z,99672.16
2023-05-24T14:41:38.160Z,99668.97
2023-05-24T14:44:11.126Z,99686.47
2023-05-24T14:46:41.577Z,99686.94
2023-05-24T14:49:11.968Z,99687.44
2023-05-24T14:51:42.352Z,99686.84
2023-05-24T14:54:14.795Z,99690.00
2023-05-24T14:56:47.534Z,99693.16
2023-05-24T14:59:20.444Z,99691.19
2023-05-24T15:01:50.793Z,99690.22
2023-05-24T15:04:23.217Z,99693.97
2023-05-24T15:06:53.467Z,99692.22
2023-05-24T15:09:23.825Z,99689.00
2023-05-24T15:11:56.569Z,99689.16
2023-05-24T15:14:29.564Z,99691.13
2023-05-24T15:16:59.930Z,99685.19
2023-05-24T15:19:30.756Z,99691.72
2023-05-24T15:22:01.090Z,99695.66
2023-05-24T15:24:31.433Z,99680.84
2023-05-24T15:27:02.057Z,99687.84
2023-05-24T15:29:34.973Z,99691.41
2023-05-24T15:32:05.276Z,99691.34
2023-05-24T15:34:35.643Z,99694.94
2023-05-24T15:37:05.907Z,99695.53
2023-05-24T15:39:37.719Z,99699.94
2023-05-24T15:42:11.127Z,99700.63
2023-05-24T15:44:44.120Z,99696.06
2023-05-24T15:47:17.570Z,99699.50
2023-05-24T15:52:19.016Z,99707.81
2023-05-24T15:54:51.421Z,99698.63
2023-05-24T15:57:22.258Z,99692.50
2023-05-24T15:59:55.932Z,99697.03
2023-05-24T16:02:26.449Z,99705.16
2023-05-24T16:04:57.663Z,99710.72
2023-05-24T16:07:27.993Z,99713.59
2023-05-24T16:09:58.262Z,99714.13
2023-05-24T16:12:30.144Z,99715.13
2023-05-24T16:15:03.760Z,99710.34
2023-05-24T16:17:34.266Z,99719.72
2023-05-24T16:20:04.900Z,99726.13
2023-05-24T16:22:37.751Z,99717.41
2023-05-24T16:25:09.004Z,99717.94
2023-05-24T16:27:39.278Z,99725.28
2023-05-24T16:30:13.256Z,99720.84
2023-05-24T16:32:45.466Z,99722.84
2023-05-24T16:35:15.821Z,99722.22
2023-05-24T16:37:46.086Z,99736.72
2023-05-24T16:40:16.435Z,99738.41
2023-05-24T16:42:46.945Z,99735.97
2023-05-24T16:45:22.473Z,99736.78
2023-05-24T16:47:52.822Z,99734.22
2023-05-24T16:50:23.063Z,99741.25
2023-05-24T16:52:56.326Z,99743.41
2023-05-24T16:55:26.929Z,99737.59
2023-05-24T16:58:03.174Z,99740.09
2023-05-24T17:00:35.772Z,99744.22
2023-05-24T17:03:06.107Z,99737.22
2023-05-24T17:05:37.510Z,99751.31
2023-05-24T17:08:08.654Z,99754.44
2023-05-24T17:10:39.218Z,99751.13
2023-05-24T17:13:09.525Z,99761.28
2023-05-24T17:15:42.466Z,99761.28
2023-05-24T17:18:12.884Z,99767.31
2023-05-24T17:20:43.365Z,99775.78
2023-05-24T17:23:15.033Z,99778.69
2023-05-24T17:25:45.390Z,99773.75
2023-05-24T17:28:15.706Z,99770.88
2023-05-24T17:30:48.822Z,99779.34
2023-05-24T17:33:19.091Z,99779.78
2023-05-24T17:35:49.320Z,99784.50
2023-05-24T17:38:19.722Z,99785.75
2023-05-24T17:40:56.077Z,99790.13
2023-05-24T17:43:29.183Z,99799.78
2023-05-24T17:46:07.125Z,99803.69
2023-05-24T17:48:38.935Z,99794.72
2023-05-24T17:51:10.877Z,99798.03
2023-05-24T17:53:45.891Z,99795.28
2023-05-24T17:56:18.855Z,99797.19
2023-05-24T17:58:50.276Z,99799.84
2023-05-24T18:01:23.989Z,99792.75
2023-05-24T18:03:54.718Z,99796.88
2023-05-24T18:06:25.131Z,99796.22
2023-05-24T18:08:58.175Z,99804.47
2023-05-24T18:11:28.735Z,99802.38
2023-05-24T18:14:03.312Z,99813.75
2023-05-24T18:16:39.469Z,99811.84
2023-05-24T18:19:09.775Z,99810.78
2023-05-24T18:21:40.429Z,99814.44
2023-05-24T18:24:10.980Z,99822.66
2023-05-24T18:26:41.860Z,99817.69
2023-05-24T18:29:12.565Z,99821.16
2023-05-24T18:31:47.178Z,99828.31
2023-05-24T18:34:18.061Z,99823.94
2023-05-24T18:36:48.427Z,99825.50
2023-05-24T18:39:19.264Z,99824.56
2023-05-24T18:41:52.226Z,99835.47
2023-05-24T18:44:24.044Z,99833.25
2023-05-24T18:46:58.289Z,99841.88
2023-05-24T18:49:29.026Z,99841.47
2023-05-24T18:52:00.639Z,99852.94
2023-05-24T18:54:31.641Z,99855.38
2023-05-24T18:57:04.853Z,99858.25
2023-05-24T18:59:35.503Z,99863.16
2023-05-24T19:02:09.340Z,99869.09
2023-05-24T19:04:44.190Z,99880.59
2023-05-24T19:07:14.510Z,99881.16
2023-05-24T19:09:44.920Z,99882.75
2023-05-24T19:12:15.292Z,99888.47
2023-05-24T19:14:47.924Z,99888.22
2023-05-24T19:17:24.409Z,99894.63
2023-05-24T19:19:54.938Z,99901.00
2023-05-24T19:22:26.422Z,99903.59
2023-05-24T19:24:59.761Z,99903.13
2023-05-24T19:27:30.269Z,99903.50
2023-05-24T19:30:01.749Z,99912.91
2023-05-24T19:32:38.785Z,99909.94
2023-05-24T19:35:11.350Z,99906.19
2023-05-24T19:37:41.796Z,99904.88
2023-05-24T19:40:13.246Z,99916.97
2023-05-24T19:42:43.649Z,99915.88
2023-05-24T19:45:14.515Z,99915.78
2023-05-24T19:47:48.280Z,99912.38
2023-05-24T19:50:19.124Z,99915.97
2023-05-24T19:52:50.406Z,99920.84
2023-05-24T19:55:20.850Z,99920.78
2023-05-24T19:57:51.497Z,99924.66
2023-05-24T20:00:22.354Z,99927.03
2023-05-24T20:02:56.061Z,99923.34
2023-05-24T20:05:26.446Z,99936.72
2023-05-24T20:07:56.726Z,99921.38
2023-05-24T20:10:27.909Z,99914.75
2023-05-24T20:12:58.238Z,99912.59
2023-05-24T20:15:30.254Z,99917.50
2023-05-24T20:18:03.259Z,99926.72
2023-05-24T20:20:33.658Z,99924.38
2023-05-24T20:23:04.126Z,99930.28
2023-05-24T20:25:34.487Z,99927.28
2023-05-24T20:28:12.727Z,99935.84
2023-05-24T20:30:48.770Z,99930.50
2023-05-24T20:33:21.702Z,99928.00
2023-05-24T20:35:53.225Z,99929.03
2023-05-24T20:38:23.594Z,99930.88
2023-05-24T20:40:53.926Z,99933.09
2023-05-24T20:43:27.099Z,99928.19
2023-05-24T20:45:57.616Z,99928.75
2023-05-24T20:48:31.400Z,99937.47
2023-05-24T20:51:01.732Z,99932.84
2023-05-24T20:53:32.034Z,99940.56
2023-05-24T20:56:02.282Z,99933.09
2023-05-24T20:58:32.806Z,99937.97
2023-05-24T21:01:05.460Z,99944.00
2023-05-24T21:03:40.573Z,99929.50
2023-05-24T21:06:12.125Z,99941.72
2023-05-24T21:08:42.383Z,99937.28
2023-05-24T21:11:12.675Z,99941.66
2023-05-24T21:13:43.705Z,99947.53
2023-05-24T21:16:14.421Z,99945.19
2023-05-24T21:18:46.994Z,99948.19
2023-05-24T21:21:17.596Z,99944.38
2023-05-24T21:23:48.366Z,99948.72
2023-05-24T21:26:18.874Z,99953.22
2023-05-24T21:28:49.801Z,99956.91
2023-05-24T21:31:20.938Z,99961.22
2023-05-24T21:33:53.956Z,99952.88
2023-05-24T21:36:24.549Z,99965.19
2023-05-24T21:38:57.145Z,99966.50
2023-05-24T21:41:27.482Z,99965.31
2023-05-24T21:43:57.752Z,99967.22
2023-05-24T21:46:29.349Z,99965.09
2023-05-24T21:49:02.315Z,99961.44
2023-05-24T21:51:33.309Z,99959.28
2023-05-24T21:54:03.592Z,99966.06
2023-05-24T21:56:36.280Z,99978.75
2023-05-24T21:59:06.588Z,99972.44
2023-05-24T22:01:37.169Z,99978.28
2023-05-24T22:04:11.522Z,99974.28
2023-05-24T22:06:42.953Z,99978.47
2023-05-24T22:09:14.000Z,99977.31
2023-05-24T22:11:46.966Z,99981.81
2023-05-24T22:14:17.529Z,99973.63
2023-05-24T22:16:51.178Z,99973.81
2023-05-24T22:19:39.618Z,99978.31
2023-05-24T22:22:12.757Z,99979.78
2023-05-24T22:24:43.743Z,99975.63
2023-05-24T22:27:14.156Z,99976.78
2023-05-24T22:29:44.709Z,99975.47
2023-05-24T22:32:15.253Z,99972.28
2023-05-24T22:34:48.391Z,99974.16
2023-05-24T22:37:19.577Z,99973.13
2023-05-24T22:39:50.100Z,99978.94
2023-05-24T22:42:20.621Z,99975.16
2023-05-24T22:44:51.490Z,99968.97
2023-05-24T22:47:23.039Z,99972.63
2023-05-24T22:49:57.053Z,99968.13
2023-05-24T22:52:27.626Z,99974.47
2023-05-24T22:54:58.067Z,99965.16
2023-05-24T22:57:28.705Z,99972.66
2023-05-24T22:59:59.214Z,99970.97
2023-05-24T23:02:30.313Z,99973.28
2023-05-24T23:05:11.859Z,99967.28
2023-05-24T23:07:42.778Z,99970.44
2023-05-24T23:10:17.720Z,99966.44
2023-05-24T23:12:50.864Z,99963.47
2023-05-24T23:15:21.625Z,99971.78
2023-05-24T23:17:52.715Z,99963.94
2023-05-24T23:20:26.163Z,99972.25
2023-05-24T23:22:56.799Z,99976.91
2023-05-24T23:25:29.450Z,99973.75
2023-05-24T23:27:59.958Z,99980.06
2023-05-24T23:30:36.044Z,99981.22
2023-05-24T23:33:06.669Z,99979.41
2023-05-24T23:35:39.977Z,99986.19
2023-05-24T23:38:12.624Z,99986.84
2023-05-24T23:40:43.154Z,99981.97
2023-05-24T23:43:16.419Z,99993.47
2023-05-24T23:45:49.468Z,99991.94
2023-05-24T23:48:20.007Z,99990.78
2023-05-24T23:50:54.683Z,99997.25
2023-05-24T23:53:27.751Z,99995.75
2023-05-24T23:55:58.269Z,99995.22
2023-05-24T23:58:32.223Z,99989.88
